Dover Air Force Base Dover US
ICAO: KDOV
IATA: DOV
Category: Large
Scheduled Services: No

Elevation: 24 ft
TransAlt. 18000 ft.

Airport Communications:
APP:132.425
ATIS:135.05
CLNC DEL:125.55
DEP:32.3
GND:118.875
PMSV METRO:34.2
COMD POST:134.1
PTD:134.1
MILLVILLE RDO:111.4
TWR:126.35

KDOV Zoom In..

If you have problems with the map follow the link
https://www.worldairports.se/pages/airport.php?
ICAO=KDOV

Runways:

(A) RW 01 length 9602 ft width 200 ft
ILS 109.95 / hdg 13

(B) RW 14 length 12903 ft width 150 ft
---- / hdg 136

(C) RW 19 length 9602 ft width 200 ft
ILS 111.90 / hdg 193

(D) RW 32 length 12903 ft width 150 ft
---- / hdg 316

Location; KDOV
Day. 20 / Time. 08.56 Zulu
* Altimeter: 30.13
* Temperature: -03° c. -26.6°f.
* Wind from: 310° Speed 14 kn with Gusts up to 23 kn.
Dewpoint: -12° c.
Visibility: 10 Statute Miles.
Clouds: Overcast 4000 ft.

KDOV 200856Z AUTO 31014G23KT 10SM OVC040 M03/M12 A3013 RMK AO2 SLP207 T10311116 52007 $


Wind From 310°
Speed 14 kn.

 
 
jpsmedia worldairports.se 2020   terms of use